Seneca Corners, Wisconsin
Current Conditions -  °F | °C
As of 2:54 PM on Tuesday 27 Jan 2015 (Local Time) from KISW Reporting Station
Overcast Overcast  
Wind Chill: 26°   Ceiling: 1200
Heat Index: 26°   Visibility: 8mi
Dew Point: 21°   Wind: 0mph
Humidity: 81%   Direction: NA
Pressure: 30.22"   Gusts: NA
Location:  44.4583°N, 90.0009°W
Report Text: KISW 272054Z AUTO 00000KT 8SM OVC012 M03/M06 A3022 RMK AO2 SLP250 T10331061 53004
Loading
Personal Weather Stations






























Interactive Weather Map New forecast layout! Learn more

10-Day Weather Forecast

Advertisements
Track Severe Weather on mobile